sensor_id;sensor_type;location;lat;lon;timestamp;P1;durP1;ratioP1;P2;durP2;ratioP2
49972;SDS011;65693;49.798;10.968;2023-04-10T00:00:39;8.98;;;6.03;;
49972;SDS011;65693;49.798;10.968;2023-04-10T00:03:07;8.63;;;5.90;;
49972;SDS011;65693;49.798;10.968;2023-04-10T00:05:33;8.00;;;6.10;;
49972;SDS011;65693;49.798;10.968;2023-04-10T00:08:00;8.63;;;6.15;;
49972;SDS011;65693;49.798;10.968;2023-04-10T00:10:27;9.38;;;5.85;;
49972;SDS011;65693;49.798;10.968;2023-04-10T00:12:55;7.82;;;5.53;;
49972;SDS011;65693;49.798;10.968;2023-04-10T00:15:24;8.50;;;5.75;;
49972;SDS011;65693;49.798;10.968;2023-04-10T00:17:50;8.48;;;5.90;;
49972;SDS011;65693;49.798;10.968;2023-04-10T00:20:19;7.50;;;5.75;;
49972;SDS011;65693;49.798;10.968;2023-04-10T00:22:45;8.68;;;5.72;;
49972;SDS011;65693;49.798;10.968;2023-04-10T00:25:12;8.75;;;6.10;;
49972;SDS011;65693;49.798;10.968;2023-04-10T00:27:38;8.63;;;6.20;;
49972;SDS011;65693;49.798;10.968;2023-04-10T00:30:05;9.98;;;6.15;;
49972;SDS011;65693;49.798;10.968;2023-04-10T00:32:34;10.50;;;6.28;;
49972;SDS011;65693;49.798;10.968;2023-04-10T00:35:00;8.13;;;5.57;;
49972;SDS011;65693;49.798;10.968;2023-04-10T00:37:27;9.50;;;5.97;;
49972;SDS011;65693;49.798;10.968;2023-04-10T00:39:54;8.40;;;5.97;;
49972;SDS011;65693;49.798;10.968;2023-04-10T00:42:20;7.68;;;5.63;;
49972;SDS011;65693;49.798;10.968;2023-04-10T00:44:47;7.80;;;5.85;;
49972;SDS011;65693;49.798;10.968;2023-04-10T00:47:13;8.82;;;5.57;;
49972;SDS011;65693;49.798;10.968;2023-04-10T00:49:41;9.23;;;5.93;;
49972;SDS011;65693;49.798;10.968;2023-04-10T00:52:08;7.38;;;5.55;;
49972;SDS011;65693;49.798;10.968;2023-04-10T00:54:35;7.63;;;5.80;;
49972;SDS011;65693;49.798;10.968;2023-04-10T00:57:02;7.05;;;5.28;;
49972;SDS011;65693;49.798;10.968;2023-04-10T00:59:29;9.80;;;5.80;;
49972;SDS011;65693;49.798;10.968;2023-04-10T01:01:56;8.02;;;6.32;;
49972;SDS011;65693;49.798;10.968;2023-04-10T01:04:23;9.30;;;5.70;;
49972;SDS011;65693;49.798;10.968;2023-04-10T01:06:55;8.68;;;6.75;;
49972;SDS011;65693;49.798;10.968;2023-04-10T01:09:34;8.35;;;6.03;;
49972;SDS011;65693;49.798;10.968;2023-04-10T01:12:09;8.43;;;6.43;;
49972;SDS011;65693;49.798;10.968;2023-04-10T01:14:45;8.27;;;5.88;;
49972;SDS011;65693;49.798;10.968;2023-04-10T01:17:20;7.95;;;6.07;;
49972;SDS011;65693;49.798;10.968;2023-04-10T01:19:56;8.80;;;6.20;;
49972;SDS011;65693;49.798;10.968;2023-04-10T01:22:33;9.02;;;6.03;;
49972;SDS011;65693;49.798;10.968;2023-04-10T01:25:06;8.95;;;6.30;;
49972;SDS011;65693;49.798;10.968;2023-04-10T01:27:58;7.72;;;5.70;;
49972;SDS011;65693;49.798;10.968;2023-04-10T01:30:37;8.27;;;5.72;;
49972;SDS011;65693;49.798;10.968;2023-04-10T01:33:05;8.23;;;5.90;;
49972;SDS011;65693;49.798;10.968;2023-04-10T01:35:37;8.52;;;6.13;;
49972;SDS011;65693;49.798;10.968;2023-04-10T01:38:05;9.32;;;6.13;;
49972;SDS011;65693;49.798;10.968;2023-04-10T01:40:32;8.80;;;6.20;;
49972;SDS011;65693;49.798;10.968;2023-04-10T01:43:04;7.57;;;5.72;;
49972;SDS011;65693;49.798;10.968;2023-04-10T01:45:36;9.02;;;6.32;;
49972;SDS011;65693;49.798;10.968;2023-04-10T01:48:05;8.32;;;5.93;;
49972;SDS011;65693;49.798;10.968;2023-04-10T01:50:32;7.53;;;5.72;;
49972;SDS011;65693;49.798;10.968;2023-04-10T01:53:00;9.32;;;6.03;;
49972;SDS011;65693;49.798;10.968;2023-04-10T01:55:29;8.85;;;6.50;;
49972;SDS011;65693;49.798;10.968;2023-04-10T01:57:57;8.18;;;6.00;;
49972;SDS011;65693;49.798;10.968;2023-04-10T02:00:24;8.60;;;5.93;;
49972;SDS011;65693;49.798;10.968;2023-04-10T02:02:52;8.02;;;6.10;;
49972;SDS011;65693;49.798;10.968;2023-04-10T02:05:19;8.57;;;5.88;;
49972;SDS011;65693;49.798;10.968;2023-04-10T02:07:56;8.50;;;6.03;;
49972;SDS011;65693;49.798;10.968;2023-04-10T02:10:32;8.25;;;6.05;;
49972;SDS011;65693;49.798;10.968;2023-04-10T02:13:06;8.30;;;5.55;;
49972;SDS011;65693;49.798;10.968;2023-04-10T02:15:36;8.63;;;5.88;;
49972;SDS011;65693;49.798;10.968;2023-04-10T02:18:08;8.18;;;6.28;;
49972;SDS011;65693;49.798;10.968;2023-04-10T02:20:36;8.20;;;6.28;;
49972;SDS011;65693;49.798;10.968;2023-04-10T02:23:02;8.80;;;6.43;;
49972;SDS011;65693;49.798;10.968;2023-04-10T02:25:30;8.80;;;6.32;;
49972;SDS011;65693;49.798;10.968;2023-04-10T02:27:57;7.63;;;5.72;;
49972;SDS011;65693;49.798;10.968;2023-04-10T02:30:29;8.93;;;6.85;;
49972;SDS011;65693;49.798;10.968;2023-04-10T02:32:56;8.60;;;5.90;;
49972;SDS011;65693;49.798;10.968;2023-04-10T02:35:24;8.60;;;6.20;;
49972;SDS011;65693;49.798;10.968;2023-04-10T02:37:53;8.57;;;6.13;;
49972;SDS011;65693;49.798;10.968;2023-04-10T02:40:19;8.88;;;5.88;;
49972;SDS011;65693;49.798;10.968;2023-04-10T02:42:46;8.32;;;5.95;;
49972;SDS011;65693;49.798;10.968;2023-04-10T02:45:12;8.32;;;6.15;;
49972;SDS011;65693;49.798;10.968;2023-04-10T02:47:39;8.40;;;6.18;;
49972;SDS011;65693;49.798;10.968;2023-04-10T02:50:05;8.85;;;5.90;;
49972;SDS011;65693;49.798;10.968;2023-04-10T02:52:33;8.27;;;5.95;;
49972;SDS011;65693;49.798;10.968;2023-04-10T02:55:00;8.35;;;5.78;;
49972;SDS011;65693;49.798;10.968;2023-04-10T02:57:27;8.30;;;5.90;;
49972;SDS011;65693;49.798;10.968;2023-04-10T02:59:53;9.68;;;6.30;;
49972;SDS011;65693;49.798;10.968;2023-04-10T03:02:20;7.93;;;5.82;;
49972;SDS011;65693;49.798;10.968;2023-04-10T03:04:46;9.00;;;6.32;;
49972;SDS011;65693;49.798;10.968;2023-04-10T03:07:12;8.95;;;6.25;;
49972;SDS011;65693;49.798;10.968;2023-04-10T03:09:40;8.43;;;6.05;;
49972;SDS011;65693;49.798;10.968;2023-04-10T03:12:07;8.38;;;6.03;;
49972;SDS011;65693;49.798;10.968;2023-04-10T03:14:33;9.68;;;6.82;;
49972;SDS011;65693;49.798;10.968;2023-04-10T03:17:00;8.75;;;5.88;;
49972;SDS011;65693;49.798;10.968;2023-04-10T03:19:26;8.65;;;6.15;;
49972;SDS011;65693;49.798;10.968;2023-04-10T03:21:53;7.93;;;5.57;;
49972;SDS011;65693;49.798;10.968;2023-04-10T03:24:19;9.80;;;6.45;;
49972;SDS011;65693;49.798;10.968;2023-04-10T03:26:47;8.65;;;6.20;;
49972;SDS011;65693;49.798;10.968;2023-04-10T03:29:14;9.32;;;6.15;;
49972;SDS011;65693;49.798;10.968;2023-04-10T03:31:43;7.60;;;5.93;;
49972;SDS011;65693;49.798;10.968;2023-04-10T03:34:10;7.88;;;6.57;;
49972;SDS011;65693;49.798;10.968;2023-04-10T03:36:36;9.30;;;6.47;;
49972;SDS011;65693;49.798;10.968;2023-04-10T03:39:03;9.15;;;6.45;;
49972;SDS011;65693;49.798;10.968;2023-04-10T03:41:29;8.68;;;6.25;;
49972;SDS011;65693;49.798;10.968;2023-04-10T03:43:57;8.75;;;6.13;;
49972;SDS011;65693;49.798;10.968;2023-04-10T03:46:26;9.93;;;6.55;;
49972;SDS011;65693;49.798;10.968;2023-04-10T03:48:52;9.13;;;6.10;;
49972;SDS011;65693;49.798;10.968;2023-04-10T03:51:18;8.75;;;6.05;;
49972;SDS011;65693;49.798;10.968;2023-04-10T03:53:47;8.90;;;6.22;;
49972;SDS011;65693;49.798;10.968;2023-04-10T03:56:13;8.65;;;6.30;;
49972;SDS011;65693;49.798;10.968;2023-04-10T03:58:40;8.98;;;6.32;;
49972;SDS011;65693;49.798;10.968;2023-04-10T04:01:07;8.48;;;6.18;;
49972;SDS011;65693;49.798;10.968;2023-04-10T04:03:34;8.48;;;6.13;;
49972;SDS011;65693;49.798;10.968;2023-04-10T04:06:00;8.55;;;6.07;;
49972;SDS011;65693;49.798;10.968;2023-04-10T04:08:27;9.27;;;5.88;;
49972;SDS011;65693;49.798;10.968;2023-04-10T04:10:53;9.73;;;6.75;;
49972;SDS011;65693;49.798;10.968;2023-04-10T04:13:20;8.13;;;6.28;;
49972;SDS011;65693;49.798;10.968;2023-04-10T04:15:46;8.95;;;6.88;;
49972;SDS011;65693;49.798;10.968;2023-04-10T04:18:14;8.30;;;6.28;;
49972;SDS011;65693;49.798;10.968;2023-04-10T04:20:40;8.32;;;5.63;;
49972;SDS011;65693;49.798;10.968;2023-04-10T04:23:07;9.40;;;6.03;;
49972;SDS011;65693;49.798;10.968;2023-04-10T04:25:33;8.98;;;6.40;;
49972;SDS011;65693;49.798;10.968;2023-04-10T04:28:00;8.40;;;6.45;;
49972;SDS011;65693;49.798;10.968;2023-04-10T04:30:26;9.63;;;7.15;;
49972;SDS011;65693;49.798;10.968;2023-04-10T04:32:52;9.98;;;6.53;;
49972;SDS011;65693;49.798;10.968;2023-04-10T04:35:20;8.20;;;6.47;;
49972;SDS011;65693;49.798;10.968;2023-04-10T04:37:47;9.85;;;6.60;;
49972;SDS011;65693;49.798;10.968;2023-04-10T04:40:13;9.38;;;6.97;;
49972;SDS011;65693;49.798;10.968;2023-04-10T04:42:40;8.23;;;6.60;;
49972;SDS011;65693;49.798;10.968;2023-04-10T04:45:07;7.38;;;5.53;;
49972;SDS011;65693;49.798;10.968;2023-04-10T04:47:34;10.23;;;6.82;;
49972;SDS011;65693;49.798;10.968;2023-04-10T04:50:00;9.38;;;6.20;;
49972;SDS011;65693;49.798;10.968;2023-04-10T04:52:28;8.85;;;6.38;;
49972;SDS011;65693;49.798;10.968;2023-04-10T04:54:56;9.65;;;6.47;;
49972;SDS011;65693;49.798;10.968;2023-04-10T04:57:22;8.63;;;6.15;;
49972;SDS011;65693;49.798;10.968;2023-04-10T04:59:49;8.80;;;6.45;;
49972;SDS011;65693;49.798;10.968;2023-04-10T05:02:15;9.35;;;6.70;;
49972;SDS011;65693;49.798;10.968;2023-04-10T05:04:42;9.30;;;6.93;;
49972;SDS011;65693;49.798;10.968;2023-04-10T05:07:09;10.43;;;6.82;;
49972;SDS011;65693;49.798;10.968;2023-04-10T05:09:37;7.82;;;5.60;;
49972;SDS011;65693;49.798;10.968;2023-04-10T05:12:03;9.90;;;6.80;;
49972;SDS011;65693;49.798;10.968;2023-04-10T05:14:30;8.68;;;6.47;;
49972;SDS011;65693;49.798;10.968;2023-04-10T05:16:56;8.75;;;6.78;;
49972;SDS011;65693;49.798;10.968;2023-04-10T05:19:23;8.63;;;6.47;;
49972;SDS011;65693;49.798;10.968;2023-04-10T05:21:49;9.55;;;6.53;;
49972;SDS011;65693;49.798;10.968;2023-04-10T05:24:16;8.63;;;6.22;;
49972;SDS011;65693;49.798;10.968;2023-04-10T05:26:44;8.05;;;6.25;;
49972;SDS011;65693;49.798;10.968;2023-04-10T05:29:10;8.70;;;6.45;;
49972;SDS011;65693;49.798;10.968;2023-04-10T05:31:37;8.82;;;6.05;;
49972;SDS011;65693;49.798;10.968;2023-04-10T05:34:03;9.80;;;6.97;;
49972;SDS011;65693;49.798;10.968;2023-04-10T05:36:30;9.60;;;6.22;;
49972;SDS011;65693;49.798;10.968;2023-04-10T05:38:56;8.88;;;6.80;;
49972;SDS011;65693;49.798;10.968;2023-04-10T05:41:23;8.07;;;6.57;;
49972;SDS011;65693;49.798;10.968;2023-04-10T05:43:51;8.25;;;6.05;;
49972;SDS011;65693;49.798;10.968;2023-04-10T05:46:17;10.05;;;6.47;;
49972;SDS011;65693;49.798;10.968;2023-04-10T05:48:43;8.57;;;6.18;;
49972;SDS011;65693;49.798;10.968;2023-04-10T05:51:10;9.15;;;6.20;;
49972;SDS011;65693;49.798;10.968;2023-04-10T05:53:36;9.32;;;6.50;;
49972;SDS011;65693;49.798;10.968;2023-04-10T05:56:03;8.57;;;6.10;;
49972;SDS011;65693;49.798;10.968;2023-04-10T05:58:29;10.48;;;6.45;;
49972;SDS011;65693;49.798;10.968;2023-04-10T06:00:57;8.52;;;6.60;;
49972;SDS011;65693;49.798;10.968;2023-04-10T06:03:24;9.13;;;6.35;;
49972;SDS011;65693;49.798;10.968;2023-04-10T06:05:53;9.63;;;7.10;;
49972;SDS011;65693;49.798;10.968;2023-04-10T06:08:20;9.82;;;6.60;;
49972;SDS011;65693;49.798;10.968;2023-04-10T06:10:46;8.73;;;6.35;;
49972;SDS011;65693;49.798;10.968;2023-04-10T06:13:13;10.98;;;6.30;;
49972;SDS011;65693;49.798;10.968;2023-04-10T06:15:40;8.43;;;6.25;;
49972;SDS011;65693;49.798;10.968;2023-04-10T06:18:07;9.57;;;6.80;;
49972;SDS011;65693;49.798;10.968;2023-04-10T06:20:34;11.05;;;6.97;;
49972;SDS011;65693;49.798;10.968;2023-04-10T06:23:01;9.82;;;6.63;;
49972;SDS011;65693;49.798;10.968;2023-04-10T06:25:27;9.52;;;6.97;;
49972;SDS011;65693;49.798;10.968;2023-04-10T06:27:53;8.57;;;6.10;;
49972;SDS011;65693;49.798;10.968;2023-04-10T06:30:20;9.60;;;6.82;;
49972;SDS011;65693;49.798;10.968;2023-04-10T06:32:46;9.27;;;6.80;;
49972;SDS011;65693;49.798;10.968;2023-04-10T06:35:14;8.35;;;6.43;;
49972;SDS011;65693;49.798;10.968;2023-04-10T06:37:41;8.57;;;6.40;;
49972;SDS011;65693;49.798;10.968;2023-04-10T06:40:08;8.90;;;6.65;;
49972;SDS011;65693;49.798;10.968;2023-04-10T06:42:36;8.60;;;6.38;;
49972;SDS011;65693;49.798;10.968;2023-04-10T06:45:03;10.35;;;7.32;;
49972;SDS011;65693;49.798;10.968;2023-04-10T06:47:30;8.70;;;6.05;;
49972;SDS011;65693;49.798;10.968;2023-04-10T06:49:57;9.75;;;6.75;;
49972;SDS011;65693;49.798;10.968;2023-04-10T06:52:24;8.18;;;6.47;;
49972;SDS011;65693;49.798;10.968;2023-04-10T06:54:51;9.63;;;6.50;;
49972;SDS011;65693;49.798;10.968;2023-04-10T06:57:17;10.18;;;7.22;;
49972;SDS011;65693;49.798;10.968;2023-04-10T06:59:44;9.25;;;6.43;;
49972;SDS011;65693;49.798;10.968;2023-04-10T07:02:10;8.50;;;6.40;;
49972;SDS011;65693;49.798;10.968;2023-04-10T07:04:37;8.95;;;6.13;;
49972;SDS011;65693;49.798;10.968;2023-04-10T07:07:03;9.75;;;6.82;;
49972;SDS011;65693;49.798;10.968;2023-04-10T07:09:35;10.13;;;6.57;;
49972;SDS011;65693;49.798;10.968;2023-04-10T07:12:01;8.85;;;6.68;;
49972;SDS011;65693;49.798;10.968;2023-04-10T07:14:28;9.30;;;6.85;;
49972;SDS011;65693;49.798;10.968;2023-04-10T07:16:55;8.95;;;6.25;;
49972;SDS011;65693;49.798;10.968;2023-04-10T07:19:21;9.43;;;7.00;;
49972;SDS011;65693;49.798;10.968;2023-04-10T07:21:48;8.50;;;5.97;;
49972;SDS011;65693;49.798;10.968;2023-04-10T07:24:14;12.15;;;6.90;;
49972;SDS011;65693;49.798;10.968;2023-04-10T07:26:43;9.15;;;6.90;;
49972;SDS011;65693;49.798;10.968;2023-04-10T07:29:09;8.75;;;5.85;;
49972;SDS011;65693;49.798;10.968;2023-04-10T07:31:36;8.27;;;5.93;;
49972;SDS011;65693;49.798;10.968;2023-04-10T07:34:02;10.13;;;6.80;;
49972;SDS011;65693;49.798;10.968;2023-04-10T07:36:29;9.18;;;6.18;;
49972;SDS011;65693;49.798;10.968;2023-04-10T07:38:55;8.93;;;6.35;;
49972;SDS011;65693;49.798;10.968;2023-04-10T07:41:22;8.57;;;6.13;;
49972;SDS011;65693;49.798;10.968;2023-04-10T07:43:50;8.25;;;5.90;;
49972;SDS011;65693;49.798;10.968;2023-04-10T07:46:18;8.32;;;6.03;;
49972;SDS011;65693;49.798;10.968;2023-04-10T07:48:44;8.68;;;6.28;;
49972;SDS011;65693;49.798;10.968;2023-04-10T07:51:12;9.38;;;6.53;;
49972;SDS011;65693;49.798;10.968;2023-04-10T07:53:38;7.82;;;6.07;;
49972;SDS011;65693;49.798;10.968;2023-04-10T07:56:05;9.30;;;6.55;;
49972;SDS011;65693;49.798;10.968;2023-04-10T07:58:32;8.63;;;6.88;;
49972;SDS011;65693;49.798;10.968;2023-04-10T08:01:01;8.20;;;5.85;;
49972;SDS011;65693;49.798;10.968;2023-04-10T08:03:27;10.13;;;7.28;;
49972;SDS011;65693;49.798;10.968;2023-04-10T08:05:54;8.18;;;6.03;;
49972;SDS011;65693;49.798;10.968;2023-04-10T08:08:20;8.63;;;6.22;;
49972;SDS011;65693;49.798;10.968;2023-04-10T08:10:47;9.55;;;6.78;;
49972;SDS011;65693;49.798;10.968;2023-04-10T08:13:13;9.10;;;6.22;;
49972;SDS011;65693;49.798;10.968;2023-04-10T08:15:40;9.93;;;6.20;;
49972;SDS011;65693;49.798;10.968;2023-04-10T08:18:08;8.50;;;6.40;;
49972;SDS011;65693;49.798;10.968;2023-04-10T08:20:34;9.18;;;6.32;;
49972;SDS011;65693;49.798;10.968;2023-04-10T08:23:01;9.80;;;6.68;;
49972;SDS011;65693;49.798;10.968;2023-04-10T08:25:28;7.93;;;6.20;;
49972;SDS011;65693;49.798;10.968;2023-04-10T08:27:55;8.38;;;6.28;;
49972;SDS011;65693;49.798;10.968;2023-04-10T08:30:21;9.18;;;6.22;;
49972;SDS011;65693;49.798;10.968;2023-04-10T08:32:48;8.23;;;6.53;;
49972;SDS011;65693;49.798;10.968;2023-04-10T08:35:15;9.73;;;6.95;;
49972;SDS011;65693;49.798;10.968;2023-04-10T08:37:42;8.52;;;6.30;;
49972;SDS011;65693;49.798;10.968;2023-04-10T08:40:09;8.30;;;6.20;;
49972;SDS011;65693;49.798;10.968;2023-04-10T08:42:36;9.00;;;6.32;;
49972;SDS011;65693;49.798;10.968;2023-04-10T08:45:03;9.00;;;6.07;;
49972;SDS011;65693;49.798;10.968;2023-04-10T08:47:29;9.88;;;6.60;;
49972;SDS011;65693;49.798;10.968;2023-04-10T08:50:04;8.02;;;5.97;;
49972;SDS011;65693;49.798;10.968;2023-04-10T08:52:33;7.65;;;5.85;;
49972;SDS011;65693;49.798;10.968;2023-04-10T08:55:04;10.10;;;6.35;;
49972;SDS011;65693;49.798;10.968;2023-04-10T08:57:34;8.60;;;6.15;;
49972;SDS011;65693;49.798;10.968;2023-04-10T09:00:03;8.60;;;6.88;;
49972;SDS011;65693;49.798;10.968;2023-04-10T09:02:30;8.70;;;5.80;;
49972;SDS011;65693;49.798;10.968;2023-04-10T09:04:57;8.50;;;6.18;;
49972;SDS011;65693;49.798;10.968;2023-04-10T09:07:25;7.70;;;5.80;;
49972;SDS011;65693;49.798;10.968;2023-04-10T09:09:53;7.97;;;5.82;;
49972;SDS011;65693;49.798;10.968;2023-04-10T09:12:20;7.65;;;5.57;;
49972;SDS011;65693;49.798;10.968;2023-04-10T09:14:46;7.88;;;5.47;;
49972;SDS011;65693;49.798;10.968;2023-04-10T09:17:17;9.00;;;6.25;;
49972;SDS011;65693;49.798;10.968;2023-04-10T09:19:45;7.78;;;5.78;;
49972;SDS011;65693;49.798;10.968;2023-04-10T09:22:12;8.40;;;6.05;;
49972;SDS011;65693;49.798;10.968;2023-04-10T09:24:39;8.20;;;6.07;;
49972;SDS011;65693;49.798;10.968;2023-04-10T09:27:08;8.20;;;5.78;;
49972;SDS011;65693;49.798;10.968;2023-04-10T09:29:38;8.05;;;5.60;;
49972;SDS011;65693;49.798;10.968;2023-04-10T09:32:07;8.75;;;6.68;;
49972;SDS011;65693;49.798;10.968;2023-04-10T09:34:33;8.10;;;5.75;;
49972;SDS011;65693;49.798;10.968;2023-04-10T09:37:00;7.85;;;5.28;;
49972;SDS011;65693;49.798;10.968;2023-04-10T09:39:32;8.18;;;5.53;;
49972;SDS011;65693;49.798;10.968;2023-04-10T09:41:59;6.63;;;4.78;;
49972;SDS011;65693;49.798;10.968;2023-04-10T09:44:30;7.75;;;5.50;;
49972;SDS011;65693;49.798;10.968;2023-04-10T09:46:58;8.30;;;6.10;;
49972;SDS011;65693;49.798;10.968;2023-04-10T09:49:25;7.25;;;5.57;;
49972;SDS011;65693;49.798;10.968;2023-04-10T09:51:51;7.70;;;5.43;;
49972;SDS011;65693;49.798;10.968;2023-04-10T09:54:18;9.52;;;5.70;;
49972;SDS011;65693;49.798;10.968;2023-04-10T09:57:00;8.20;;;5.38;;
49972;SDS011;65693;49.798;10.968;2023-04-10T09:59:26;8.07;;;5.93;;
49972;SDS011;65693;49.798;10.968;2023-04-10T10:01:54;7.55;;;5.93;;
49972;SDS011;65693;49.798;10.968;2023-04-10T10:04:21;6.55;;;4.88;;
49972;SDS011;65693;49.798;10.968;2023-04-10T10:06:48;7.97;;;5.60;;
49972;SDS011;65693;49.798;10.968;2023-04-10T10:09:14;8.40;;;6.30;;
49972;SDS011;65693;49.798;10.968;2023-04-10T10:11:41;7.75;;;5.68;;
49972;SDS011;65693;49.798;10.968;2023-04-10T10:14:08;9.52;;;6.03;;
49972;SDS011;65693;49.798;10.968;2023-04-10T10:16:38;8.57;;;6.20;;
49972;SDS011;65693;49.798;10.968;2023-04-10T10:19:13;8.15;;;6.35;;
49972;SDS011;65693;49.798;10.968;2023-04-10T10:21:45;8.07;;;5.90;;
49972;SDS011;65693;49.798;10.968;2023-04-10T10:24:12;8.18;;;5.93;;
49972;SDS011;65693;49.798;10.968;2023-04-10T10:26:41;8.85;;;6.15;;
49972;SDS011;65693;49.798;10.968;2023-04-10T10:29:09;7.32;;;5.38;;
49972;SDS011;65693;49.798;10.968;2023-04-10T10:31:37;8.93;;;6.32;;
49972;SDS011;65693;49.798;10.968;2023-04-10T10:34:03;8.93;;;6.40;;
49972;SDS011;65693;49.798;10.968;2023-04-10T10:36:34;7.88;;;5.68;;
49972;SDS011;65693;49.798;10.968;2023-04-10T10:39:17;7.45;;;5.32;;
49972;SDS011;65693;49.798;10.968;2023-04-10T10:41:56;7.72;;;5.18;;
49972;SDS011;65693;49.798;10.968;2023-04-10T10:44:28;7.40;;;5.43;;
49972;SDS011;65693;49.798;10.968;2023-04-10T10:47:03;7.35;;;5.20;;
49972;SDS011;65693;49.798;10.968;2023-04-10T10:49:50;7.47;;;5.60;;
49972;SDS011;65693;49.798;10.968;2023-04-10T10:58:01;7.75;;;5.72;;
49972;SDS011;65693;49.798;10.968;2023-04-10T11:03:30;7.95;;;5.75;;
49972;SDS011;65693;49.798;10.968;2023-04-10T11:05:57;7.53;;;5.60;;
49972;SDS011;65693;49.798;10.968;2023-04-10T11:08:37;7.65;;;5.60;;
49972;SDS011;65693;49.798;10.968;2023-04-10T11:11:07;7.72;;;6.10;;
49972;SDS011;65693;49.798;10.968;2023-04-10T11:13:36;7.38;;;5.38;;
49972;SDS011;65693;49.798;10.968;2023-04-10T11:16:04;7.93;;;5.30;;
49972;SDS011;65693;49.798;10.968;2023-04-10T11:21:31;7.82;;;5.85;;
49972;SDS011;65693;49.798;10.968;2023-04-10T11:24:04;9.27;;;6.20;;
49972;SDS011;65693;49.798;10.968;2023-04-10T11:26:37;11.38;;;5.72;;
49972;SDS011;65693;49.798;10.968;2023-04-10T11:31:32;7.18;;;5.32;;
49972;SDS011;65693;49.798;10.968;2023-04-10T11:34:00;10.20;;;5.78;;
49972;SDS011;65693;49.798;10.968;2023-04-10T11:36:27;8.70;;;5.95;;
49972;SDS011;65693;49.798;10.968;2023-04-10T11:38:55;7.00;;;4.93;;
49972;SDS011;65693;49.798;10.968;2023-04-10T11:41:28;8.90;;;5.68;;
49972;SDS011;65693;49.798;10.968;2023-04-10T11:43:56;9.27;;;5.55;;
49972;SDS011;65693;49.798;10.968;2023-04-10T11:46:22;7.78;;;5.72;;
49972;SDS011;65693;49.798;10.968;2023-04-10T11:48:51;8.55;;;5.50;;
49972;SDS011;65693;49.798;10.968;2023-04-10T11:51:18;9.32;;;6.07;;
49972;SDS011;65693;49.798;10.968;2023-04-10T11:53:45;9.23;;;5.50;;
49972;SDS011;65693;49.798;10.968;2023-04-10T11:56:15;8.10;;;5.72;;
49972;SDS011;65693;49.798;10.968;2023-04-10T11:58:44;7.80;;;5.57;;
49972;SDS011;65693;49.798;10.968;2023-04-10T12:01:14;7.45;;;5.20;;
49972;SDS011;65693;49.798;10.968;2023-04-10T12:03:41;9.35;;;5.43;;
49972;SDS011;65693;49.798;10.968;2023-04-10T12:06:09;9.90;;;5.70;;
49972;SDS011;65693;49.798;10.968;2023-04-10T12:08:38;9.52;;;5.20;;
49972;SDS011;65693;49.798;10.968;2023-04-10T12:11:06;8.23;;;5.55;;
49972;SDS011;65693;49.798;10.968;2023-04-10T12:13:33;7.40;;;5.60;;
49972;SDS011;65693;49.798;10.968;2023-04-10T12:16:02;7.43;;;5.30;;
49972;SDS011;65693;49.798;10.968;2023-04-10T12:18:30;7.63;;;5.13;;
49972;SDS011;65693;49.798;10.968;2023-04-10T12:20:56;8.48;;;5.85;;
49972;SDS011;65693;49.798;10.968;2023-04-10T12:23:24;9.48;;;5.25;;
49972;SDS011;65693;49.798;10.968;2023-04-10T12:25:51;6.95;;;5.70;;
49972;SDS011;65693;49.798;10.968;2023-04-10T12:28:19;7.82;;;5.25;;
49972;SDS011;65693;49.798;10.968;2023-04-10T12:30:46;7.07;;;5.35;;
49972;SDS011;65693;49.798;10.968;2023-04-10T12:33:18;8.05;;;5.25;;
49972;SDS011;65693;49.798;10.968;2023-04-10T12:35:45;8.68;;;5.57;;
49972;SDS011;65693;49.798;10.968;2023-04-10T12:38:12;7.03;;;5.20;;
49972;SDS011;65693;49.798;10.968;2023-04-10T12:43:29;8.13;;;4.90;;
49972;SDS011;65693;49.798;10.968;2023-04-10T12:45:57;7.95;;;5.22;;
49972;SDS011;65693;49.798;10.968;2023-04-10T12:48:25;7.63;;;4.95;;
49972;SDS011;65693;49.798;10.968;2023-04-10T12:50:52;7.78;;;5.28;;
49972;SDS011;65693;49.798;10.968;2023-04-10T12:53:18;8.43;;;5.30;;
49972;SDS011;65693;49.798;10.968;2023-04-10T12:55:54;6.78;;;4.68;;
49972;SDS011;65693;49.798;10.968;2023-04-10T12:58:23;7.00;;;5.00;;
49972;SDS011;65693;49.798;10.968;2023-04-10T13:00:52;7.55;;;5.72;;
49972;SDS011;65693;49.798;10.968;2023-04-10T13:03:19;7.05;;;4.55;;
49972;SDS011;65693;49.798;10.968;2023-04-10T13:05:47;6.57;;;4.57;;
49972;SDS011;65693;49.798;10.968;2023-04-10T13:08:13;7.25;;;5.07;;
49972;SDS011;65693;49.798;10.968;2023-04-10T13:10:40;7.80;;;5.03;;
49972;SDS011;65693;49.798;10.968;2023-04-10T13:13:07;8.23;;;6.47;;
49972;SDS011;65693;49.798;10.968;2023-04-10T13:15:35;8.10;;;5.00;;
49972;SDS011;65693;49.798;10.968;2023-04-10T13:18:03;6.95;;;4.85;;
49972;SDS011;65693;49.798;10.968;2023-04-10T13:20:31;7.38;;;5.40;;
49972;SDS011;65693;49.798;10.968;2023-04-10T13:22:59;7.80;;;5.45;;
49972;SDS011;65693;49.798;10.968;2023-04-10T13:25:26;8.30;;;5.70;;
49972;SDS011;65693;49.798;10.968;2023-04-10T13:27:53;7.38;;;4.80;;
49972;SDS011;65693;49.798;10.968;2023-04-10T13:30:19;7.20;;;5.25;;
49972;SDS011;65693;49.798;10.968;2023-04-10T13:32:46;7.05;;;5.70;;
49972;SDS011;65693;49.798;10.968;2023-04-10T13:35:12;7.85;;;5.45;;
49972;SDS011;65693;49.798;10.968;2023-04-10T13:37:38;7.05;;;4.90;;
49972;SDS011;65693;49.798;10.968;2023-04-10T13:40:07;6.82;;;4.40;;
49972;SDS011;65693;49.798;10.968;2023-04-10T13:42:35;6.53;;;4.53;;
49972;SDS011;65693;49.798;10.968;2023-04-10T13:45:01;6.68;;;4.88;;
49972;SDS011;65693;49.798;10.968;2023-04-10T13:47:27;7.80;;;5.53;;
49972;SDS011;65693;49.798;10.968;2023-04-10T13:49:54;6.55;;;4.70;;
49972;SDS011;65693;49.798;10.968;2023-04-10T13:52:20;8.35;;;5.55;;
49972;SDS011;65693;49.798;10.968;2023-04-10T13:54:47;6.82;;;4.57;;
49972;SDS011;65693;49.798;10.968;2023-04-10T13:57:15;7.03;;;5.18;;
49972;SDS011;65693;49.798;10.968;2023-04-10T13:59:41;7.25;;;5.13;;
49972;SDS011;65693;49.798;10.968;2023-04-10T14:02:08;7.40;;;5.10;;
49972;SDS011;65693;49.798;10.968;2023-04-10T14:04:34;6.57;;;4.75;;
49972;SDS011;65693;49.798;10.968;2023-04-10T14:07:00;7.50;;;4.38;;
49972;SDS011;65693;49.798;10.968;2023-04-10T14:09:27;6.38;;;4.72;;
49972;SDS011;65693;49.798;10.968;2023-04-10T14:11:54;6.47;;;4.78;;
49972;SDS011;65693;49.798;10.968;2023-04-10T14:14:21;6.40;;;4.82;;
49972;SDS011;65693;49.798;10.968;2023-04-10T14:16:48;7.13;;;4.80;;
49972;SDS011;65693;49.798;10.968;2023-04-10T14:19:15;6.63;;;4.63;;
49972;SDS011;65693;49.798;10.968;2023-04-10T14:21:41;6.68;;;4.50;;
49972;SDS011;65693;49.798;10.968;2023-04-10T14:24:08;8.02;;;4.45;;
49972;SDS011;65693;49.798;10.968;2023-04-10T14:26:35;6.22;;;4.55;;
49972;SDS011;65693;49.798;10.968;2023-04-10T14:29:01;7.57;;;4.95;;
49972;SDS011;65693;49.798;10.968;2023-04-10T14:31:29;6.63;;;4.88;;
49972;SDS011;65693;49.798;10.968;2023-04-10T14:33:56;6.25;;;4.50;;
49972;SDS011;65693;49.798;10.968;2023-04-10T14:36:22;7.55;;;5.57;;
49972;SDS011;65693;49.798;10.968;2023-04-10T14:38:48;6.50;;;4.80;;
49972;SDS011;65693;49.798;10.968;2023-04-10T14:41:15;6.85;;;5.13;;
49972;SDS011;65693;49.798;10.968;2023-04-10T14:43:41;7.25;;;5.00;;
49972;SDS011;65693;49.798;10.968;2023-04-10T14:46:08;7.68;;;4.82;;
49972;SDS011;65693;49.798;10.968;2023-04-10T14:48:35;6.82;;;4.65;;
49972;SDS011;65693;49.798;10.968;2023-04-10T14:51:02;5.97;;;4.13;;
49972;SDS011;65693;49.798;10.968;2023-04-10T14:53:29;11.45;;;4.28;;